TimeMDT,TemperatureF,Dew PointF,Humidity,Sea Level PressureIn,VisibilityMPH,Wind Direction,Wind SpeedMPH,Gust SpeedMPH,PrecipitationIn,Events,Conditions,WindDirDegrees,DateUTC
12:53 AM,46.9,8.1,21,29.86,10.0,ESE,11.5,-,N/A,,Clear,110,2012-03-14 06:53:00
1:53 AM,48.0,8.1,20,29.86,10.0,ESE,12.7,-,N/A,,Clear,110,2012-03-14 07:53:00
2:53 AM,46.0,10.0,23,29.87,10.0,East,13.8,-,N/A,,Clear,100,2012-03-14 08:53:00
3:53 AM,45.0,10.0,24,29.87,10.0,East,13.8,-,N/A,,Clear,100,2012-03-14 09:53:00
4:53 AM,44.1,10.9,26,29.88,10.0,East,12.7,-,N/A,,Clear,100,2012-03-14 10:53:00
5:53 AM,41.0,10.9,29,29.91,10.0,ESE,10.4,-,N/A,,Clear,110,2012-03-14 11:53:00
6:53 AM,39.0,10.9,32,29.94,10.0,East,12.7,-,N/A,,Clear,90,2012-03-14 12:53:00
7:53 AM,37.0,10.9,34,29.98,10.0,SE,3.5,-,N/A,,Clear,140,2012-03-14 13:53:00
8:53 AM,44.1,12.9,28,30.01,10.0,Calm,Calm,-,N/A,,Clear,0,2012-03-14 14:53:00
9:53 AM,53.1,10.0,18,30.00,10.0,SE,8.1,-,N/A,,Clear,140,2012-03-14 15:53:00
10:53 AM,59.0,8.1,13,29.98,10.0,SE,9.2,-,N/A,,Clear,140,2012-03-14 16:53:00
11:53 AM,60.1,9.0,13,29.98,10.0,Variable,3.5,-,N/A,,Clear,0,2012-03-14 17:53:00
12:53 PM,63.0,3.9,10,29.94,10.0,South,3.5,-,N/A,,Clear,190,2012-03-14 18:53:00
1:53 PM,66.0,3.0,8,29.90,10.0,WSW,8.1,-,N/A,,Clear,240,2012-03-14 19:53:00
2:53 PM,66.9,3.9,8,29.88,10.0,Variable,5.8,-,N/A,,Clear,0,2012-03-14 20:53:00
3:53 PM,68.0,3.0,8,29.88,10.0,SSW,8.1,-,N/A,,Clear,210,2012-03-14 21:53:00
4:53 PM,69.1,1.9,7,29.87,10.0,West,6.9,-,N/A,,Clear,260,2012-03-14 22:53:00
5:53 PM,66.9,3.9,8,29.89,10.0,SW,9.2,-,N/A,,Clear,230,2012-03-14 23:53:00
6:53 PM,64.0,7.0,11,29.92,10.0,WNW,6.9,-,N/A,,Clear,290,2012-03-15 00:53:00
7:53 PM,54.0,6.1,15,29.98,10.0,NNE,5.8,-,N/A,,Clear,30,2012-03-15 01:53:00
8:53 PM,48.0,8.1,20,30.00,10.0,East,3.5,-,N/A,,Clear,100,2012-03-15 02:53:00
9:53 PM,50.0,8.1,18,29.99,10.0,East,6.9,-,N/A,,Clear,80,2012-03-15 03:53:00
10:53 PM,50.0,6.1,17,29.97,10.0,East,8.1,-,N/A,,Clear,80,2012-03-15 04:53:00
11:53 PM,48.0,5.0,17,29.99,10.0,East,6.9,-,N/A,,Clear,80,2012-03-15 05:53:00